createdAt,value
2023-03-29T00:02:05.652Z,0.61
2023-03-29T00:04:35.629Z,0.53
2023-03-29T00:07:06.140Z,0.52
2023-03-29T00:09:36.410Z,0.52
2023-03-29T00:12:06.332Z,0.57
2023-03-29T00:14:35.403Z,0.54
2023-03-29T00:17:06.558Z,0.58
2023-03-29T00:19:36.932Z,0.58
2023-03-29T00:22:06.935Z,0.60
2023-03-29T00:24:36.443Z,0.50
2023-03-29T00:27:05.872Z,0.59
2023-03-29T00:29:35.151Z,0.54
2023-03-29T00:32:05.689Z,0.59
2023-03-29T00:34:37.410Z,0.68
2023-03-29T00:37:10.053Z,0.56
2023-03-29T00:39:42.261Z,0.59
2023-03-29T00:42:14.507Z,0.56
2023-03-29T00:45:02.137Z,0.52
2023-03-29T00:47:39.506Z,0.49
2023-03-29T00:50:14.524Z,0.54
2023-03-29T00:52:46.604Z,0.44
2023-03-29T00:55:21.909Z,0.52
2023-03-29T00:57:52.918Z,0.51
2023-03-29T01:00:26.939Z,0.53
2023-03-29T01:03:01.065Z,0.50
2023-03-29T01:05:33.707Z,0.49
2023-03-29T01:08:07.485Z,0.57
2023-03-29T01:10:41.091Z,0.60
2023-03-29T01:13:13.421Z,0.38
2023-03-29T01:15:46.447Z,0.40
2023-03-29T01:18:23.019Z,0.46
2023-03-29T01:21:12.737Z,0.52
2023-03-29T01:24:11.994Z,0.41
2023-03-29T01:26:49.126Z,0.44
2023-03-29T01:29:25.930Z,0.44
2023-03-29T01:31:59.562Z,0.31
2023-03-29T01:34:36.923Z,0.42
2023-03-29T01:37:12.032Z,0.43
2023-03-29T01:39:41.463Z,0.39
2023-03-29T01:42:18.750Z,0.39
2023-03-29T01:44:57.052Z,0.32
2023-03-29T01:47:33.588Z,0.33
2023-03-29T01:50:12.817Z,0.35
2023-03-29T01:52:48.394Z,0.32
2023-03-29T01:55:23.258Z,0.38
2023-03-29T01:57:55.058Z,0.42
2023-03-29T02:00:29.798Z,0.31
2023-03-29T02:03:04.722Z,0.28
2023-03-29T02:05:35.206Z,0.42
2023-03-29T02:08:07.895Z,0.45
2023-03-29T02:10:38.197Z,0.52
2023-03-29T02:13:08.021Z,0.50
2023-03-29T02:15:39.399Z,0.57
2023-03-29T02:18:08.676Z,0.59
2023-03-29T02:20:41.697Z,0.59
2023-03-29T02:23:18.321Z,0.58
2023-03-29T02:25:50.523Z,0.56
2023-03-29T02:28:21.854Z,0.58
2023-03-29T02:31:00.102Z,0.57
2023-03-29T02:33:37.165Z,0.60
2023-03-29T02:36:14.137Z,0.64
2023-03-29T02:38:43.428Z,0.57
2023-03-29T02:41:13.273Z,0.53
2023-03-29T02:43:44.067Z,0.62
2023-03-29T02:46:16.028Z,0.57
2023-03-29T02:48:46.981Z,0.52
2023-03-29T02:51:20.473Z,0.58
2023-03-29T02:53:54.601Z,0.61
2023-03-29T02:56:23.736Z,0.59
2023-03-29T02:58:52.732Z,0.63
2023-03-29T03:01:24.050Z,0.57
2023-03-29T03:03:53.981Z,0.58
2023-03-29T03:06:24.329Z,0.64
2023-03-29T03:08:53.458Z,0.61
2023-03-29T03:11:24.180Z,0.40
2023-03-29T03:13:53.256Z,0.52
2023-03-29T03:16:24.071Z,0.47
2023-03-29T03:18:55.129Z,0.43
2023-03-29T03:21:24.820Z,0.38
2023-03-29T03:23:55.060Z,0.34
2023-03-29T03:26:25.939Z,0.34
2023-03-29T03:28:55.334Z,0.34
2023-03-29T03:31:54.021Z,0.34
2023-03-29T03:34:42.000Z,0.26
2023-03-29T03:37:12.522Z,0.30
2023-03-29T03:39:42.269Z,0.25
2023-03-29T03:42:12.643Z,0.29
2023-03-29T03:44:45.149Z,0.35
2023-03-29T03:47:33.415Z,0.33
2023-03-29T03:50:15.715Z,0.33
2023-03-29T03:52:44.926Z,0.31
2023-03-29T03:55:14.746Z,0.25
2023-03-29T03:57:49.475Z,0.27
2023-03-29T04:00:21.594Z,0.29
2023-03-29T04:03:11.193Z,0.27
2023-03-29T04:05:41.595Z,0.20
2023-03-29T04:08:11.852Z,0.17
2023-03-29T04:11:17.017Z,0.17
2023-03-29T04:13:46.278Z,0.20
2023-03-29T04:16:29.435Z,0.23
2023-03-29T04:19:07.066Z,0.20
2023-03-29T04:21:36.201Z,0.24
2023-03-29T04:24:05.402Z,0.20
2023-03-29T04:26:37.546Z,0.19
2023-03-29T04:29:17.014Z,0.15
2023-03-29T04:31:52.409Z,0.14
2023-03-29T04:34:40.917Z,0.08
2023-03-29T04:37:10.804Z,0.10
2023-03-29T04:39:41.320Z,0.18
2023-03-29T04:42:12.453Z,0.21
2023-03-29T04:44:43.837Z,0.32
2023-03-29T04:47:16.180Z,0.33
2023-03-29T04:49:57.447Z,0.43
2023-03-29T04:52:37.477Z,0.36
2023-03-29T04:55:09.454Z,0.46
2023-03-29T04:58:01.536Z,0.47
2023-03-29T05:00:43.832Z,0.71
2023-03-29T05:03:27.321Z,1.26
2023-03-29T05:06:12.490Z,1.74
2023-03-29T05:08:42.263Z,2.29
2023-03-29T05:11:24.611Z,2.81
2023-03-29T05:14:00.991Z,3.11
2023-03-29T05:16:31.495Z,3.28
2023-03-29T05:19:01.829Z,3.41
2023-03-29T05:21:34.607Z,3.99
2023-03-29T05:24:07.520Z,4.42
2023-03-29T05:26:59.391Z,4.88
2023-03-29T05:29:33.022Z,5.29
2023-03-29T05:32:19.398Z,5.21
2023-03-29T05:34:49.026Z,4.63
2023-03-29T05:37:19.862Z,3.68
2023-03-29T05:39:55.179Z,2.86
2023-03-29T05:42:41.156Z,1.87
2023-03-29T05:45:13.385Z,1.65
2023-03-29T05:47:43.212Z,1.86
2023-03-29T05:50:12.862Z,2.31
2023-03-29T05:52:44.135Z,2.91
2023-03-29T05:55:14.127Z,2.76
2023-03-29T05:57:43.315Z,3.60
2023-03-29T06:00:20.524Z,3.13
2023-03-29T06:02:49.954Z,3.44
2023-03-29T06:05:20.071Z,4.02
2023-03-29T06:08:04.253Z,4.59
2023-03-29T06:10:52.183Z,4.37
2023-03-29T06:13:57.026Z,4.25
2023-03-29T06:16:27.420Z,3.64
2023-03-29T06:18:56.968Z,2.89
2023-03-29T06:21:27.282Z,2.56
2023-03-29T06:23:59.082Z,2.45
2023-03-29T06:26:32.660Z,2.71
2023-03-29T06:29:02.878Z,3.19
2023-03-29T06:31:36.261Z,3.65
2023-03-29T06:34:07.575Z,4.29
2023-03-29T06:37:02.235Z,4.63
2023-03-29T06:39:33.290Z,4.39
2023-03-29T06:42:24.852Z,4.60
2023-03-29T06:45:30.920Z,4.51
2023-03-29T06:48:02.306Z,4.53
2023-03-29T06:50:33.374Z,4.33
2023-03-29T06:53:13.545Z,4.11
2023-03-29T06:55:45.970Z,3.54
2023-03-29T06:58:45.251Z,3.52
2023-03-29T07:01:40.163Z,3.78
2023-03-29T07:04:17.919Z,3.76
2023-03-29T07:07:08.023Z,4.12
2023-03-29T07:09:40.183Z,3.94
2023-03-29T07:12:33.707Z,4.14
2023-03-29T07:15:04.751Z,4.61
2023-03-29T07:17:59.941Z,4.70
2023-03-29T07:20:29.433Z,4.66
2023-03-29T07:23:08.392Z,4.96
2023-03-29T07:25:40.106Z,5.11
2023-03-29T07:28:12.019Z,4.71
2023-03-29T07:30:41.604Z,4.83
2023-03-29T07:33:20.388Z,5.00
2023-03-29T07:35:55.728Z,5.33
2023-03-29T07:38:25.538Z,4.89
2023-03-29T07:41:05.512Z,4.98
2023-03-29T07:43:54.527Z,4.93
2023-03-29T07:46:26.728Z,4.90
2023-03-29T07:48:57.096Z,4.83
2023-03-29T07:51:27.179Z,4.97
2023-03-29T07:54:05.712Z,5.15
2023-03-29T07:56:49.804Z,5.09
2023-03-29T07:59:20.589Z,5.42
2023-03-29T08:01:57.533Z,5.57
2023-03-29T08:04:41.828Z,5.84
2023-03-29T08:07:21.305Z,5.79
2023-03-29T08:10:13.813Z,5.96
2023-03-29T08:12:52.619Z,6.38
2023-03-29T08:15:29.742Z,6.04
2023-03-29T08:18:03.319Z,6.05
2023-03-29T08:20:32.920Z,6.07
2023-03-29T08:23:05.562Z,6.06
2023-03-29T08:26:00.886Z,5.99
2023-03-29T08:28:30.073Z,6.41
2023-03-29T08:31:00.830Z,6.25
2023-03-29T08:33:30.583Z,6.48
2023-03-29T08:36:19.667Z,6.53
2023-03-29T08:38:50.714Z,6.49
2023-03-29T08:41:34.147Z,6.53
2023-03-29T08:44:15.174Z,6.78
2023-03-29T08:47:12.151Z,6.64
2023-03-29T08:49:49.184Z,6.86
2023-03-29T08:52:25.982Z,6.98
2023-03-29T08:54:59.630Z,7.01
2023-03-29T08:57:50.274Z,6.90
2023-03-29T09:00:36.651Z,7.07
2023-03-29T09:03:12.952Z,7.16
2023-03-29T09:05:48.072Z,7.27
2023-03-29T09:08:25.997Z,7.29
2023-03-29T09:11:12.432Z,7.93
2023-03-29T09:13:54.984Z,8.20
2023-03-29T09:16:32.799Z,8.17
2023-03-29T09:19:17.390Z,8.06
2023-03-29T09:21:52.341Z,7.97
2023-03-29T09:24:42.875Z,7.87
2023-03-29T09:27:26.927Z,7.61
2023-03-29T09:30:17.427Z,7.69
2023-03-29T09:32:56.976Z,7.72
2023-03-29T09:35:39.045Z,7.94
2023-03-29T09:38:14.288Z,8.20
2023-03-29T09:40:49.403Z,8.19
2023-03-29T09:43:31.247Z,8.53
2023-03-29T09:46:05.873Z,8.56
2023-03-29T09:48:40.892Z,8.33
2023-03-29T09:51:14.617Z,8.32
2023-03-29T09:53:44.051Z,8.44
2023-03-29T09:56:24.425Z,8.55
2023-03-29T09:59:00.858Z,8.79
2023-03-29T10:01:38.974Z,8.88
2023-03-29T10:04:11.499Z,8.89
2023-03-29T10:06:51.292Z,9.14
2023-03-29T10:09:24.325Z,8.69
2023-03-29T10:12:02.433Z,8.74
2023-03-29T10:14:38.419Z,8.72
2023-03-29T10:17:18.734Z,8.94
2023-03-29T10:19:52.115Z,8.91
2023-03-29T10:22:25.837Z,9.04
2023-03-29T10:24:56.279Z,9.35
2023-03-29T10:27:28.455Z,9.50
2023-03-29T10:29:59.952Z,9.45
2023-03-29T10:32:34.563Z,9.70
2023-03-29T10:35:10.968Z,9.50
2023-03-29T10:37:46.237Z,9.56
2023-03-29T10:40:23.388Z,9.74
2023-03-29T10:42:54.120Z,9.76
2023-03-29T10:45:28.672Z,9.72
2023-03-29T10:47:59.292Z,9.97
2023-03-29T10:50:35.096Z,10.40
2023-03-29T10:53:21.086Z,10.42
2023-03-29T10:56:02.605Z,10.44
2023-03-29T10:58:45.162Z,10.08
2023-03-29T11:01:24.997Z,10.31
2023-03-29T11:04:13.358Z,10.17
2023-03-29T11:06:49.159Z,10.27
2023-03-29T11:09:29.235Z,10.24
2023-03-29T11:12:15.734Z,10.27
2023-03-29T11:15:01.810Z,10.04
2023-03-29T11:17:54.204Z,10.32
2023-03-29T11:20:35.670Z,10.38
2023-03-29T11:23:20.102Z,10.37
2023-03-29T11:26:02.626Z,10.19
2023-03-29T11:28:40.347Z,10.27
2023-03-29T11:31:19.489Z,10.31
2023-03-29T11:33:59.118Z,10.54
2023-03-29T11:36:39.108Z,10.57
2023-03-29T11:39:17.202Z,10.72
2023-03-29T11:41:52.412Z,10.87
2023-03-29T11:44:26.751Z,11.09
2023-03-29T11:47:02.724Z,10.94
2023-03-29T11:49:37.228Z,11.55
2023-03-29T11:52:12.755Z,11.21
2023-03-29T11:54:46.247Z,11.05
2023-03-29T11:57:22.361Z,10.95
2023-03-29T11:59:57.758Z,10.84
2023-03-29T12:02:34.248Z,11.00
2023-03-29T12:05:12.966Z,11.39
2023-03-29T12:07:48.972Z,11.47
2023-03-29T12:10:21.785Z,11.04
2023-03-29T12:12:57.743Z,11.39
2023-03-29T12:15:31.952Z,11.71
2023-03-29T12:18:08.606Z,12.05
2023-03-29T12:20:42.467Z,12.15
2023-03-29T12:23:17.301Z,12.22
2023-03-29T12:25:55.680Z,12.86
2023-03-29T12:28:39.971Z,12.94
2023-03-29T12:31:18.603Z,12.93
2023-03-29T12:34:10.549Z,13.01
2023-03-29T12:37:19.918Z,13.28
2023-03-29T12:40:15.679Z,13.41
2023-03-29T12:43:05.324Z,14.48
2023-03-29T12:45:58.279Z,15.11
2023-03-29T12:48:32.037Z,14.89
2023-03-29T12:51:02.812Z,14.52
2023-03-29T12:53:36.290Z,14.70
2023-03-29T12:56:17.802Z,14.31
2023-03-29T12:59:07.202Z,14.26
2023-03-29T13:01:41.576Z,14.26
2023-03-29T13:04:20.337Z,14.17
2023-03-29T13:07:03.584Z,14.48
2023-03-29T13:09:36.974Z,14.18
2023-03-29T13:12:09.620Z,13.51
2023-03-29T13:14:42.955Z,12.65
2023-03-29T13:17:20.961Z,12.66
2023-03-29T13:20:01.206Z,12.18
2023-03-29T13:22:54.445Z,12.20
2023-03-29T13:25:42.830Z,11.85
2023-03-29T13:28:24.553Z,11.83
2023-03-29T13:31:00.864Z,11.63
2023-03-29T13:33:54.968Z,11.51
2023-03-29T13:36:38.231Z,11.38
2023-03-29T13:39:17.764Z,11.12
2023-03-29T13:41:50.552Z,11.10
2023-03-29T13:44:29.840Z,11.08
2023-03-29T13:47:29.029Z,10.96
2023-03-29T13:50:05.614Z,10.68
2023-03-29T13:52:39.729Z,10.64
2023-03-29T13:55:16.836Z,10.64
2023-03-29T13:57:53.798Z,10.47
2023-03-29T14:00:28.810Z,10.53
2023-03-29T14:03:01.746Z,10.27
2023-03-29T14:05:36.223Z,10.50
2023-03-29T14:08:11.490Z,10.17
2023-03-29T14:10:44.190Z,10.26
2023-03-29T14:13:15.125Z,10.04
2023-03-29T14:15:47.155Z,10.02
2023-03-29T14:18:20.222Z,9.94
2023-03-29T14:20:55.430Z,9.57
2023-03-29T14:23:27.260Z,9.81
2023-03-29T14:25:56.530Z,9.69
2023-03-29T14:28:28.124Z,9.63
2023-03-29T14:30:58.188Z,9.69
2023-03-29T14:33:31.318Z,9.94
2023-03-29T14:36:04.383Z,9.73
2023-03-29T14:38:37.324Z,9.54
2023-03-29T14:41:08.116Z,9.63
2023-03-29T14:43:37.320Z,9.61
2023-03-29T14:46:08.283Z,9.09
2023-03-29T14:48:39.628Z,9.08
2023-03-29T14:51:11.115Z,8.79
2023-03-29T14:53:41.241Z,8.82
2023-03-29T14:56:16.005Z,9.06
2023-03-29T14:58:48.106Z,9.03
2023-03-29T15:01:20.417Z,9.19
2023-03-29T15:03:55.143Z,9.06
2023-03-29T15:06:27.216Z,8.83
2023-03-29T15:09:06.206Z,8.77
2023-03-29T15:11:37.548Z,8.69
2023-03-29T15:14:09.210Z,8.76
2023-03-29T15:16:42.439Z,8.52
2023-03-29T15:19:17.348Z,8.40
2023-03-29T15:21:50.092Z,8.41
2023-03-29T15:24:24.570Z,8.21
2023-03-29T15:27:01.594Z,8.14
2023-03-29T15:29:42.155Z,8.00
2023-03-29T15:32:12.407Z,7.95
2023-03-29T15:34:41.580Z,7.96
2023-03-29T15:37:14.478Z,7.93
2023-03-29T15:39:45.550Z,7.95
2023-03-29T15:42:14.730Z,7.92
2023-03-29T15:44:45.080Z,8.02
2023-03-29T15:47:14.846Z,8.00
2023-03-29T15:49:44.248Z,8.03
2023-03-29T15:52:15.758Z,8.11
2023-03-29T15:54:45.285Z,8.02
2023-03-29T15:57:16.910Z,8.15
2023-03-29T15:59:46.467Z,8.10
2023-03-29T16:02:17.181Z,8.08
2023-03-29T16:04:46.382Z,8.05
2023-03-29T16:07:20.027Z,8.15
2023-03-29T16:09:49.460Z,8.00
2023-03-29T16:12:18.636Z,8.21
2023-03-29T16:14:48.041Z,8.10
2023-03-29T16:17:17.307Z,8.10
2023-03-29T16:19:47.328Z,7.99
2023-03-29T16:22:18.912Z,7.91
2023-03-29T16:24:48.274Z,7.93
2023-03-29T16:27:18.119Z,7.85
2023-03-29T16:29:47.579Z,7.81
2023-03-29T16:32:16.998Z,7.64
2023-03-29T16:34:46.418Z,7.72
2023-03-29T16:37:15.819Z,7.68
2023-03-29T16:39:46.685Z,7.60
2023-03-29T16:42:16.809Z,7.49
2023-03-29T16:44:46.177Z,7.44
2023-03-29T16:47:15.533Z,7.44
2023-03-29T16:49:45.861Z,7.51
2023-03-29T16:52:15.134Z,7.43
2023-03-29T16:54:45.961Z,7.52
2023-03-29T16:57:15.038Z,7.46
2023-03-29T16:59:47.657Z,7.45
2023-03-29T17:02:16.914Z,7.43
2023-03-29T17:04:46.452Z,7.41
2023-03-29T17:07:15.704Z,7.41
2023-03-29T17:09:47.380Z,7.36
2023-03-29T17:12:16.722Z,7.43
2023-03-29T17:14:45.994Z,7.35
2023-03-29T17:17:15.827Z,7.43
2023-03-29T17:19:45.108Z,7.40
2023-03-29T17:22:14.198Z,7.39
2023-03-29T17:24:43.601Z,7.44
2023-03-29T17:27:14.371Z,7.37
2023-03-29T17:29:43.621Z,7.29
2023-03-29T17:32:12.767Z,7.25
2023-03-29T17:34:41.930Z,7.22
2023-03-29T17:37:11.109Z,7.20
2023-03-29T17:39:42.244Z,7.18
2023-03-29T17:42:11.386Z,7.18
2023-03-29T17:44:42.132Z,7.18
2023-03-29T17:47:11.609Z,7.18
2023-03-29T17:49:40.833Z,7.21
2023-03-29T17:52:10.033Z,7.20
2023-03-29T17:54:39.232Z,7.21
2023-03-29T17:57:08.458Z,7.18
2023-03-29T17:59:38.353Z,7.12
2023-03-29T18:02:10.409Z,7.10
2023-03-29T18:04:39.740Z,6.98
2023-03-29T18:07:08.763Z,6.91
2023-03-29T18:09:37.886Z,6.92
2023-03-29T18:12:07.752Z,6.93
2023-03-29T18:14:37.232Z,6.90
2023-03-29T18:17:06.652Z,6.86
2023-03-29T18:19:37.338Z,6.86
2023-03-29T18:22:06.694Z,6.80
2023-03-29T18:24:36.026Z,6.78
2023-03-29T18:27:05.271Z,6.77
2023-03-29T18:29:34.555Z,6.73
2023-03-29T18:32:03.791Z,6.63
2023-03-29T18:34:33.636Z,6.64
2023-03-29T18:37:04.451Z,6.63
2023-03-29T18:39:35.005Z,6.67
2023-03-29T18:42:04.093Z,6.66
2023-03-29T18:44:33.588Z,6.57
2023-03-29T18:47:02.623Z,6.61
2023-03-29T18:49:32.591Z,6.63
2023-03-29T18:52:02.320Z,6.64
2023-03-29T18:54:33.321Z,6.65
2023-03-29T18:57:02.555Z,6.62
2023-03-29T18:59:31.662Z,6.57
2023-03-29T19:02:00.703Z,6.60
2023-03-29T19:04:30.379Z,6.63
2023-03-29T19:07:01.653Z,6.58
2023-03-29T19:09:31.168Z,6.63
2023-03-29T19:12:01.641Z,6.53
2023-03-29T19:14:30.829Z,6.50
2023-03-29T19:16:59.865Z,6.42
2023-03-29T19:19:29.446Z,6.52
2023-03-29T19:22:00.516Z,6.54
2023-03-29T19:24:30.392Z,6.57
2023-03-29T19:27:02.022Z,6.56
2023-03-29T19:29:31.219Z,6.54
2023-03-29T19:32:00.421Z,6.60
2023-03-29T19:34:30.681Z,6.54
2023-03-29T19:37:01.156Z,6.53
2023-03-29T19:39:30.776Z,6.62
2023-03-29T19:42:01.376Z,6.62
2023-03-29T19:44:30.656Z,6.66
2023-03-29T19:46:59.854Z,6.67
2023-03-29T19:49:29.554Z,6.62
2023-03-29T19:51:59.662Z,6.63
2023-03-29T19:54:28.776Z,6.58
2023-03-29T19:56:58.214Z,6.59
2023-03-29T19:59:29.081Z,6.63
2023-03-29T20:01:58.330Z,6.57
2023-03-29T20:04:28.995Z,6.67
2023-03-29T20:06:58.923Z,6.72
2023-03-29T20:09:28.115Z,6.68
2023-03-29T20:11:57.432Z,6.63
2023-03-29T20:14:28.003Z,6.63
2023-03-29T20:16:57.150Z,6.64
2023-03-29T20:19:27.052Z,6.62
2023-03-29T20:21:57.982Z,6.64
2023-03-29T20:24:27.559Z,6.69
2023-03-29T20:26:57.786Z,6.66
2023-03-29T20:29:28.360Z,6.66
2023-03-29T20:31:58.466Z,6.67
2023-03-29T20:34:27.946Z,6.70
2023-03-29T20:37:01.657Z,6.67
2023-03-29T20:39:33.383Z,6.63
2023-03-29T20:42:02.529Z,6.62
2023-03-29T20:44:35.225Z,6.55
2023-03-29T20:47:05.375Z,6.48
2023-03-29T20:49:38.950Z,6.40
2023-03-29T20:52:11.494Z,6.39
2023-03-29T20:54:40.780Z,6.32
2023-03-29T20:57:14.287Z,6.30
2023-03-29T20:59:45.584Z,6.25
2023-03-29T21:02:16.808Z,6.14
2023-03-29T21:04:46.403Z,6.07
2023-03-29T21:07:17.330Z,6.13
2023-03-29T21:09:47.455Z,6.07
2023-03-29T21:12:16.953Z,6.14
2023-03-29T21:14:47.655Z,6.15
2023-03-29T21:17:16.779Z,6.11
2023-03-29T21:19:46.452Z,6.09
2023-03-29T21:22:15.619Z,6.22
2023-03-29T21:24:44.566Z,6.21
2023-03-29T21:27:13.661Z,6.22
2023-03-29T21:29:42.601Z,6.16
2023-03-29T21:32:13.033Z,6.15
2023-03-29T21:34:42.233Z,6.16
2023-03-29T21:37:13.377Z,6.25
2023-03-29T21:39:44.841Z,6.22
2023-03-29T21:42:14.139Z,6.25
2023-03-29T21:44:43.244Z,6.25
2023-03-29T21:47:13.725Z,6.22
2023-03-29T21:49:43.140Z,6.25
2023-03-29T21:52:12.831Z,6.26
2023-03-29T21:54:41.944Z,6.30
2023-03-29T21:57:10.985Z,6.31
2023-03-29T21:59:41.466Z,6.38
2023-03-29T22:02:10.560Z,6.42
2023-03-29T22:04:41.677Z,6.47
2023-03-29T22:07:11.012Z,6.49
2023-03-29T22:09:41.649Z,6.47
2023-03-29T22:12:12.304Z,6.55
2023-03-29T22:14:41.382Z,6.60
2023-03-29T22:17:11.614Z,6.57
2023-03-29T22:19:43.658Z,6.61
2023-03-29T22:22:15.626Z,6.63
2023-03-29T22:24:45.810Z,6.67
2023-03-29T22:27:14.843Z,6.70
2023-03-29T22:29:43.868Z,6.65
2023-03-29T22:32:13.055Z,6.62
2023-03-29T22:34:43.608Z,6.61
2023-03-29T22:37:12.642Z,6.58
2023-03-29T22:39:41.654Z,6.53
2023-03-29T22:42:11.058Z,6.50
2023-03-29T22:44:39.965Z,6.45
2023-03-29T22:47:09.166Z,6.45
2023-03-29T22:49:38.349Z,6.38
2023-03-29T22:52:09.082Z,6.25
2023-03-29T22:54:38.366Z,6.25
2023-03-29T22:57:07.440Z,6.17
2023-03-29T22:59:36.741Z,6.19
2023-03-29T23:02:06.031Z,6.19
2023-03-29T23:04:36.820Z,6.24
2023-03-29T23:07:06.783Z,6.21
2023-03-29T23:09:37.794Z,6.26
2023-03-29T23:12:07.400Z,6.29
2023-03-29T23:14:36.415Z,6.32
2023-03-29T23:17:05.357Z,6.23
2023-03-29T23:19:34.581Z,6.19
2023-03-29T23:22:03.589Z,6.19
2023-03-29T23:24:33.650Z,6.18
2023-03-29T23:27:05.274Z,6.17
2023-03-29T23:29:34.733Z,6.15
2023-03-29T23:32:03.678Z,6.26
2023-03-29T23:34:33.444Z,6.26
2023-03-29T23:37:02.395Z,6.29
2023-03-29T23:39:32.579Z,6.28
2023-03-29T23:42:04.201Z,6.32
2023-03-29T23:44:35.966Z,6.32
2023-03-29T23:47:05.674Z,6.33
2023-03-29T23:49:34.741Z,6.30
2023-03-29T23:52:03.904Z,6.36
2023-03-29T23:54:33.009Z,6.26
2023-03-29T23:57:02.177Z,6.29
2023-03-29T23:59:31.421Z,6.32
